sensor_id;sensor_type;location;lat;lon;timestamp;P1;durP1;ratioP1;P2;durP2;ratioP2
16880;SDS011;8557;52.068;5.198;2022-10-16T00:00:35;6.00;;;2.58;;
16880;SDS011;8557;52.068;5.198;2022-10-16T00:03:04;5.40;;;2.03;;
16880;SDS011;8557;52.068;5.198;2022-10-16T00:05:31;8.05;;;2.35;;
16880;SDS011;8557;52.068;5.198;2022-10-16T00:07:59;4.95;;;2.30;;
16880;SDS011;8557;52.068;5.198;2022-10-16T00:10:27;3.88;;;2.17;;
16880;SDS011;8557;52.068;5.198;2022-10-16T00:12:54;5.07;;;2.20;;
16880;SDS011;8557;52.068;5.198;2022-10-16T00:15:21;5.45;;;2.30;;
16880;SDS011;8557;52.068;5.198;2022-10-16T00:17:48;3.08;;;2.35;;
16880;SDS011;8557;52.068;5.198;2022-10-16T00:20:16;5.35;;;2.40;;
16880;SDS011;8557;52.068;5.198;2022-10-16T00:22:43;3.80;;;2.25;;
16880;SDS011;8557;52.068;5.198;2022-10-16T00:25:10;4.70;;;2.60;;
16880;SDS011;8557;52.068;5.198;2022-10-16T00:27:36;5.72;;;2.90;;
16880;SDS011;8557;52.068;5.198;2022-10-16T00:30:04;5.38;;;2.70;;
16880;SDS011;8557;52.068;5.198;2022-10-16T00:32:33;5.25;;;2.70;;
16880;SDS011;8557;52.068;5.198;2022-10-16T00:35:00;4.90;;;2.83;;
16880;SDS011;8557;52.068;5.198;2022-10-16T00:37:30;4.68;;;2.67;;
16880;SDS011;8557;52.068;5.198;2022-10-16T00:39:56;6.75;;;3.00;;
16880;SDS011;8557;52.068;5.198;2022-10-16T00:42:23;4.15;;;2.55;;
16880;SDS011;8557;52.068;5.198;2022-10-16T00:44:51;4.80;;;2.80;;
16880;SDS011;8557;52.068;5.198;2022-10-16T00:47:20;3.38;;;3.00;;
16880;SDS011;8557;52.068;5.198;2022-10-16T00:49:51;6.30;;;3.22;;
16880;SDS011;8557;52.068;5.198;2022-10-16T00:52:22;4.57;;;2.97;;
16880;SDS011;8557;52.068;5.198;2022-10-16T00:54:50;4.95;;;3.15;;
16880;SDS011;8557;52.068;5.198;2022-10-16T00:57:19;3.15;;;2.72;;
16880;SDS011;8557;52.068;5.198;2022-10-16T00:59:47;3.88;;;2.88;;
16880;SDS011;8557;52.068;5.198;2022-10-16T01:02:14;3.80;;;2.60;;
16880;SDS011;8557;52.068;5.198;2022-10-16T01:04:42;3.97;;;2.67;;
16880;SDS011;8557;52.068;5.198;2022-10-16T01:07:12;6.13;;;3.08;;
16880;SDS011;8557;52.068;5.198;2022-10-16T01:09:46;3.75;;;2.70;;
16880;SDS011;8557;52.068;5.198;2022-10-16T01:12:22;3.90;;;2.70;;
16880;SDS011;8557;52.068;5.198;2022-10-16T01:15:01;6.80;;;2.80;;
16880;SDS011;8557;52.068;5.198;2022-10-16T01:17:34;4.35;;;2.90;;
16880;SDS011;8557;52.068;5.198;2022-10-16T01:20:08;3.55;;;2.72;;
16880;SDS011;8557;52.068;5.198;2022-10-16T01:22:39;5.65;;;3.17;;
16880;SDS011;8557;52.068;5.198;2022-10-16T01:25:25;6.95;;;3.00;;
16880;SDS011;8557;52.068;5.198;2022-10-16T01:28:05;4.40;;;3.17;;
16880;SDS011;8557;52.068;5.198;2022-10-16T01:30:37;4.63;;;2.72;;
16880;SDS011;8557;52.068;5.198;2022-10-16T01:33:08;5.47;;;2.92;;
16880;SDS011;8557;52.068;5.198;2022-10-16T01:35:41;4.38;;;2.72;;
16880;SDS011;8557;52.068;5.198;2022-10-16T01:38:12;4.13;;;2.80;;
16880;SDS011;8557;52.068;5.198;2022-10-16T01:40:43;6.13;;;2.80;;
16880;SDS011;8557;52.068;5.198;2022-10-16T01:43:14;3.10;;;2.80;;
16880;SDS011;8557;52.068;5.198;2022-10-16T01:45:44;4.68;;;2.90;;
16880;SDS011;8557;52.068;5.198;2022-10-16T01:48:12;5.25;;;2.92;;
16880;SDS011;8557;52.068;5.198;2022-10-16T01:50:41;3.47;;;2.78;;
16880;SDS011;8557;52.068;5.198;2022-10-16T01:53:11;6.97;;;2.80;;
16880;SDS011;8557;52.068;5.198;2022-10-16T01:55:41;5.90;;;2.83;;
16880;SDS011;8557;52.068;5.198;2022-10-16T01:58:12;4.63;;;2.70;;
16880;SDS011;8557;52.068;5.198;2022-10-16T02:00:42;4.68;;;2.50;;
16880;SDS011;8557;52.068;5.198;2022-10-16T02:03:11;3.42;;;2.85;;
16880;SDS011;8557;52.068;5.198;2022-10-16T02:05:41;3.88;;;2.72;;
16880;SDS011;8557;52.068;5.198;2022-10-16T02:08:11;3.78;;;2.85;;
16880;SDS011;8557;52.068;5.198;2022-10-16T02:10:38;4.22;;;3.20;;
16880;SDS011;8557;52.068;5.198;2022-10-16T02:13:06;6.22;;;3.30;;
16880;SDS011;8557;52.068;5.198;2022-10-16T02:15:38;6.65;;;2.95;;
16880;SDS011;8557;52.068;5.198;2022-10-16T02:18:05;5.20;;;2.95;;
16880;SDS011;8557;52.068;5.198;2022-10-16T02:20:35;3.42;;;2.80;;
16880;SDS011;8557;52.068;5.198;2022-10-16T02:23:06;6.28;;;3.00;;
16880;SDS011;8557;52.068;5.198;2022-10-16T02:25:38;4.30;;;3.20;;
16880;SDS011;8557;52.068;5.198;2022-10-16T02:28:08;3.67;;;2.90;;
16880;SDS011;8557;52.068;5.198;2022-10-16T02:30:44;3.97;;;2.88;;
16880;SDS011;8557;52.068;5.198;2022-10-16T02:33:15;4.57;;;2.90;;
16880;SDS011;8557;52.068;5.198;2022-10-16T02:35:43;3.47;;;2.90;;
16880;SDS011;8557;52.068;5.198;2022-10-16T02:38:12;4.55;;;2.97;;
16880;SDS011;8557;52.068;5.198;2022-10-16T02:40:41;5.13;;;3.78;;
16880;SDS011;8557;52.068;5.198;2022-10-16T02:43:08;3.10;;;2.83;;
16880;SDS011;8557;52.068;5.198;2022-10-16T02:45:35;6.20;;;2.85;;
16880;SDS011;8557;52.068;5.198;2022-10-16T02:48:04;4.72;;;3.10;;
16880;SDS011;8557;52.068;5.198;2022-10-16T02:50:31;2.88;;;2.47;;
16880;SDS011;8557;52.068;5.198;2022-10-16T02:52:58;4.82;;;3.22;;
16880;SDS011;8557;52.068;5.198;2022-10-16T02:55:24;4.00;;;2.97;;
16880;SDS011;8557;52.068;5.198;2022-10-16T02:57:52;3.97;;;2.72;;
16880;SDS011;8557;52.068;5.198;2022-10-16T03:00:19;2.88;;;2.58;;
16880;SDS011;8557;52.068;5.198;2022-10-16T03:02:46;4.47;;;2.45;;
16880;SDS011;8557;52.068;5.198;2022-10-16T03:05:15;5.22;;;3.22;;
16880;SDS011;8557;52.068;5.198;2022-10-16T03:07:42;2.90;;;2.60;;
16880;SDS011;8557;52.068;5.198;2022-10-16T03:10:09;4.28;;;2.58;;
16880;SDS011;8557;52.068;5.198;2022-10-16T03:12:35;4.47;;;2.42;;
16880;SDS011;8557;52.068;5.198;2022-10-16T03:15:02;5.78;;;2.67;;
16880;SDS011;8557;52.068;5.198;2022-10-16T03:17:31;5.13;;;2.33;;
16880;SDS011;8557;52.068;5.198;2022-10-16T03:19:58;4.32;;;2.50;;
16880;SDS011;8557;52.068;5.198;2022-10-16T03:22:26;5.00;;;2.33;;
16880;SDS011;8557;52.068;5.198;2022-10-16T03:24:53;3.88;;;2.30;;
16880;SDS011;8557;52.068;5.198;2022-10-16T03:27:20;3.00;;;2.30;;
16880;SDS011;8557;52.068;5.198;2022-10-16T03:29:47;2.47;;;2.22;;
16880;SDS011;8557;52.068;5.198;2022-10-16T03:32:14;3.08;;;2.60;;
16880;SDS011;8557;52.068;5.198;2022-10-16T03:34:40;4.93;;;2.30;;
16880;SDS011;8557;52.068;5.198;2022-10-16T03:37:07;2.42;;;2.13;;
16880;SDS011;8557;52.068;5.198;2022-10-16T03:39:35;3.17;;;2.45;;
16880;SDS011;8557;52.068;5.198;2022-10-16T03:42:02;3.25;;;2.40;;
16880;SDS011;8557;52.068;5.198;2022-10-16T03:44:28;3.53;;;2.13;;
16880;SDS011;8557;52.068;5.198;2022-10-16T03:46:55;2.53;;;2.10;;
16880;SDS011;8557;52.068;5.198;2022-10-16T03:49:22;5.45;;;2.40;;
16880;SDS011;8557;52.068;5.198;2022-10-16T03:51:49;4.78;;;2.10;;
16880;SDS011;8557;52.068;5.198;2022-10-16T03:54:15;3.50;;;2.50;;
16880;SDS011;8557;52.068;5.198;2022-10-16T03:56:43;3.30;;;2.28;;
16880;SDS011;8557;52.068;5.198;2022-10-16T03:59:10;3.70;;;2.25;;
16880;SDS011;8557;52.068;5.198;2022-10-16T04:01:37;2.92;;;2.17;;
16880;SDS011;8557;52.068;5.198;2022-10-16T04:04:03;2.53;;;2.05;;
16880;SDS011;8557;52.068;5.198;2022-10-16T04:06:30;4.50;;;2.20;;
16880;SDS011;8557;52.068;5.198;2022-10-16T04:08:57;4.60;;;2.20;;
16880;SDS011;8557;52.068;5.198;2022-10-16T04:11:24;2.45;;;2.22;;
16880;SDS011;8557;52.068;5.198;2022-10-16T04:13:53;7.07;;;2.30;;
16880;SDS011;8557;52.068;5.198;2022-10-16T04:16:19;3.38;;;2.35;;
16880;SDS011;8557;52.068;5.198;2022-10-16T04:18:46;4.32;;;2.10;;
16880;SDS011;8557;52.068;5.198;2022-10-16T04:21:13;3.03;;;2.08;;
16880;SDS011;8557;52.068;5.198;2022-10-16T04:23:39;2.75;;;2.20;;
16880;SDS011;8557;52.068;5.198;2022-10-16T04:26:06;2.90;;;2.25;;
16880;SDS011;8557;52.068;5.198;2022-10-16T04:28:33;3.28;;;2.13;;
16880;SDS011;8557;52.068;5.198;2022-10-16T04:31:01;2.58;;;2.00;;
16880;SDS011;8557;52.068;5.198;2022-10-16T04:33:30;3.10;;;2.00;;
16880;SDS011;8557;52.068;5.198;2022-10-16T04:35:57;4.22;;;2.00;;
16880;SDS011;8557;52.068;5.198;2022-10-16T04:38:24;3.28;;;1.98;;
16880;SDS011;8557;52.068;5.198;2022-10-16T04:40:51;2.25;;;2.05;;
16880;SDS011;8557;52.068;5.198;2022-10-16T04:43:18;2.38;;;1.90;;
16880;SDS011;8557;52.068;5.198;2022-10-16T04:45:45;5.10;;;2.15;;
16880;SDS011;8557;52.068;5.198;2022-10-16T04:48:13;2.80;;;2.10;;
16880;SDS011;8557;52.068;5.198;2022-10-16T04:50:40;3.58;;;2.22;;
16880;SDS011;8557;52.068;5.198;2022-10-16T04:53:07;4.85;;;2.20;;
16880;SDS011;8557;52.068;5.198;2022-10-16T04:55:34;3.13;;;2.10;;
16880;SDS011;8557;52.068;5.198;2022-10-16T04:58:01;3.53;;;1.90;;
16880;SDS011;8557;52.068;5.198;2022-10-16T05:00:28;4.32;;;2.20;;
16880;SDS011;8557;52.068;5.198;2022-10-16T05:02:54;3.25;;;2.00;;
16880;SDS011;8557;52.068;5.198;2022-10-16T05:05:23;3.17;;;1.90;;
16880;SDS011;8557;52.068;5.198;2022-10-16T05:07:50;4.63;;;2.10;;
16880;SDS011;8557;52.068;5.198;2022-10-16T05:10:17;2.90;;;1.75;;
16880;SDS011;8557;52.068;5.198;2022-10-16T05:12:44;6.68;;;2.33;;
16880;SDS011;8557;52.068;5.198;2022-10-16T05:15:11;4.45;;;2.20;;
16880;SDS011;8557;52.068;5.198;2022-10-16T05:17:37;4.03;;;2.17;;
16880;SDS011;8557;52.068;5.198;2022-10-16T05:20:05;2.28;;;2.08;;
16880;SDS011;8557;52.068;5.198;2022-10-16T05:22:33;7.07;;;2.38;;
16880;SDS011;8557;52.068;5.198;2022-10-16T05:25:00;3.88;;;2.40;;
16880;SDS011;8557;52.068;5.198;2022-10-16T05:27:27;4.00;;;2.45;;
16880;SDS011;8557;52.068;5.198;2022-10-16T05:29:53;3.08;;;2.25;;
16880;SDS011;8557;52.068;5.198;2022-10-16T05:32:20;4.93;;;2.50;;
16880;SDS011;8557;52.068;5.198;2022-10-16T05:34:47;5.35;;;2.40;;
16880;SDS011;8557;52.068;5.198;2022-10-16T05:37:14;3.08;;;2.40;;
16880;SDS011;8557;52.068;5.198;2022-10-16T05:39:42;3.78;;;2.30;;
16880;SDS011;8557;52.068;5.198;2022-10-16T05:42:09;4.85;;;2.60;;
16880;SDS011;8557;52.068;5.198;2022-10-16T05:44:35;3.78;;;2.50;;
16880;SDS011;8557;52.068;5.198;2022-10-16T05:47:02;3.97;;;2.30;;
16880;SDS011;8557;52.068;5.198;2022-10-16T05:49:29;2.95;;;2.22;;
16880;SDS011;8557;52.068;5.198;2022-10-16T05:51:56;3.47;;;2.28;;
16880;SDS011;8557;52.068;5.198;2022-10-16T05:54:23;3.83;;;2.15;;
16880;SDS011;8557;52.068;5.198;2022-10-16T05:56:51;3.65;;;2.40;;
16880;SDS011;8557;52.068;5.198;2022-10-16T05:59:18;3.95;;;2.70;;
16880;SDS011;8557;52.068;5.198;2022-10-16T06:01:45;6.13;;;2.42;;
16880;SDS011;8557;52.068;5.198;2022-10-16T06:04:11;2.45;;;2.20;;
16880;SDS011;8557;52.068;5.198;2022-10-16T06:06:38;4.85;;;2.40;;
16880;SDS011;8557;52.068;5.198;2022-10-16T06:09:05;3.88;;;2.42;;
16880;SDS011;8557;52.068;5.198;2022-10-16T06:11:32;3.05;;;2.50;;
16880;SDS011;8557;52.068;5.198;2022-10-16T06:14:01;3.10;;;2.33;;
16880;SDS011;8557;52.068;5.198;2022-10-16T06:16:32;3.38;;;2.50;;
16880;SDS011;8557;52.068;5.198;2022-10-16T06:18:59;3.45;;;2.63;;
16880;SDS011;8557;52.068;5.198;2022-10-16T06:21:26;4.05;;;2.30;;
16880;SDS011;8557;52.068;5.198;2022-10-16T06:23:54;5.25;;;2.50;;
16880;SDS011;8557;52.068;5.198;2022-10-16T06:26:22;3.53;;;2.17;;
16880;SDS011;8557;52.068;5.198;2022-10-16T06:28:50;3.85;;;2.50;;
16880;SDS011;8557;52.068;5.198;2022-10-16T06:31:18;3.50;;;2.60;;
16880;SDS011;8557;52.068;5.198;2022-10-16T06:33:49;4.38;;;2.25;;
16880;SDS011;8557;52.068;5.198;2022-10-16T06:36:17;8.82;;;2.97;;
16880;SDS011;8557;52.068;5.198;2022-10-16T06:38:44;3.78;;;2.70;;
16880;SDS011;8557;52.068;5.198;2022-10-16T06:41:11;7.38;;;2.67;;
16880;SDS011;8557;52.068;5.198;2022-10-16T06:43:39;3.20;;;2.53;;
16880;SDS011;8557;52.068;5.198;2022-10-16T06:46:07;5.05;;;2.72;;
16880;SDS011;8557;52.068;5.198;2022-10-16T06:48:37;5.78;;;2.40;;
16880;SDS011;8557;52.068;5.198;2022-10-16T06:51:05;3.28;;;2.47;;
16880;SDS011;8557;52.068;5.198;2022-10-16T06:53:35;7.60;;;2.53;;
16880;SDS011;8557;52.068;5.198;2022-10-16T06:56:07;2.70;;;2.30;;
16880;SDS011;8557;52.068;5.198;2022-10-16T06:58:34;4.45;;;2.50;;
16880;SDS011;8557;52.068;5.198;2022-10-16T07:01:01;3.50;;;2.58;;
16880;SDS011;8557;52.068;5.198;2022-10-16T07:03:28;4.50;;;2.30;;
16880;SDS011;8557;52.068;5.198;2022-10-16T07:05:56;4.65;;;2.20;;
16880;SDS011;8557;52.068;5.198;2022-10-16T07:08:27;6.72;;;2.65;;
16880;SDS011;8557;52.068;5.198;2022-10-16T07:10:57;3.63;;;2.55;;
16880;SDS011;8557;52.068;5.198;2022-10-16T07:13:25;4.35;;;1.98;;
16880;SDS011;8557;52.068;5.198;2022-10-16T07:15:52;4.93;;;2.10;;
16880;SDS011;8557;52.068;5.198;2022-10-16T07:18:19;4.72;;;1.80;;
16880;SDS011;8557;52.068;5.198;2022-10-16T07:20:45;4.60;;;2.10;;
16880;SDS011;8557;52.068;5.198;2022-10-16T07:23:13;3.58;;;1.80;;
16880;SDS011;8557;52.068;5.198;2022-10-16T07:25:40;5.35;;;1.88;;
16880;SDS011;8557;52.068;5.198;2022-10-16T07:28:07;2.47;;;1.70;;
16880;SDS011;8557;52.068;5.198;2022-10-16T07:30:34;3.85;;;1.58;;
16880;SDS011;8557;52.068;5.198;2022-10-16T07:33:02;5.13;;;1.70;;
16880;SDS011;8557;52.068;5.198;2022-10-16T07:35:29;4.13;;;2.00;;
16880;SDS011;8557;52.068;5.198;2022-10-16T07:37:56;3.70;;;1.98;;
16880;SDS011;8557;52.068;5.198;2022-10-16T07:40:24;3.97;;;2.30;;
16880;SDS011;8557;52.068;5.198;2022-10-16T07:42:52;5.93;;;2.38;;
16880;SDS011;8557;52.068;5.198;2022-10-16T07:45:18;5.32;;;2.30;;
16880;SDS011;8557;52.068;5.198;2022-10-16T07:47:45;2.63;;;2.22;;
16880;SDS011;8557;52.068;5.198;2022-10-16T07:50:12;6.75;;;2.67;;
16880;SDS011;8557;52.068;5.198;2022-10-16T07:52:39;3.47;;;2.25;;
16880;SDS011;8557;52.068;5.198;2022-10-16T07:55:06;3.05;;;2.50;;
16880;SDS011;8557;52.068;5.198;2022-10-16T07:57:35;4.15;;;2.78;;
16880;SDS011;8557;52.068;5.198;2022-10-16T08:00:02;5.32;;;2.92;;
16880;SDS011;8557;52.068;5.198;2022-10-16T08:02:29;3.38;;;2.45;;
16880;SDS011;8557;52.068;5.198;2022-10-16T08:04:57;4.65;;;2.45;;
16880;SDS011;8557;52.068;5.198;2022-10-16T08:07:23;5.97;;;2.70;;
16880;SDS011;8557;52.068;5.198;2022-10-16T08:09:50;4.70;;;2.45;;
16880;SDS011;8557;52.068;5.198;2022-10-16T08:12:17;6.93;;;3.05;;
16880;SDS011;8557;52.068;5.198;2022-10-16T08:14:45;4.68;;;2.83;;
16880;SDS011;8557;52.068;5.198;2022-10-16T08:17:13;4.43;;;2.42;;
16880;SDS011;8557;52.068;5.198;2022-10-16T08:19:43;5.97;;;2.67;;
16880;SDS011;8557;52.068;5.198;2022-10-16T08:22:10;5.28;;;2.10;;
16880;SDS011;8557;52.068;5.198;2022-10-16T08:24:37;7.40;;;2.40;;
16880;SDS011;8557;52.068;5.198;2022-10-16T08:27:04;4.13;;;2.33;;
16880;SDS011;8557;52.068;5.198;2022-10-16T08:29:31;5.22;;;2.40;;
16880;SDS011;8557;52.068;5.198;2022-10-16T08:32:00;4.57;;;2.10;;
16880;SDS011;8557;52.068;5.198;2022-10-16T08:34:26;9.73;;;2.25;;
16880;SDS011;8557;52.068;5.198;2022-10-16T08:36:53;2.92;;;2.00;;
16880;SDS011;8557;52.068;5.198;2022-10-16T08:39:20;8.43;;;2.20;;
16880;SDS011;8557;52.068;5.198;2022-10-16T08:41:53;4.00;;;2.08;;
16880;SDS011;8557;52.068;5.198;2022-10-16T08:44:58;4.82;;;2.17;;
16880;SDS011;8557;52.068;5.198;2022-10-16T08:47:48;4.55;;;2.15;;
16880;SDS011;8557;52.068;5.198;2022-10-16T08:50:19;10.20;;;2.53;;
16880;SDS011;8557;52.068;5.198;2022-10-16T08:52:50;5.20;;;2.50;;
16880;SDS011;8557;52.068;5.198;2022-10-16T08:55:22;5.05;;;2.17;;
16880;SDS011;8557;52.068;5.198;2022-10-16T08:57:59;6.85;;;2.08;;
16880;SDS011;8557;52.068;5.198;2022-10-16T09:00:26;6.45;;;2.25;;
16880;SDS011;8557;52.068;5.198;2022-10-16T09:02:57;9.90;;;2.40;;
16880;SDS011;8557;52.068;5.198;2022-10-16T09:05:47;5.97;;;2.03;;
16880;SDS011;8557;52.068;5.198;2022-10-16T09:08:24;9.15;;;2.60;;
16880;SDS011;8557;52.068;5.198;2022-10-16T09:10:59;2.63;;;1.77;;
16880;SDS011;8557;52.068;5.198;2022-10-16T09:13:33;6.22;;;2.00;;
16880;SDS011;8557;52.068;5.198;2022-10-16T09:16:10;7.03;;;1.85;;
16880;SDS011;8557;52.068;5.198;2022-10-16T09:18:45;8.35;;;2.25;;
16880;SDS011;8557;52.068;5.198;2022-10-16T09:21:18;6.97;;;2.03;;
16880;SDS011;8557;52.068;5.198;2022-10-16T09:23:49;6.97;;;2.10;;
16880;SDS011;8557;52.068;5.198;2022-10-16T09:26:17;6.03;;;1.90;;
16880;SDS011;8557;52.068;5.198;2022-10-16T09:28:46;4.72;;;1.92;;
16880;SDS011;8557;52.068;5.198;2022-10-16T09:31:15;9.00;;;2.08;;
16880;SDS011;8557;52.068;5.198;2022-10-16T09:33:47;8.77;;;2.22;;
16880;SDS011;8557;52.068;5.198;2022-10-16T09:36:18;6.63;;;2.05;;
16880;SDS011;8557;52.068;5.198;2022-10-16T09:38:46;8.07;;;2.17;;
16880;SDS011;8557;52.068;5.198;2022-10-16T09:41:15;9.38;;;2.33;;
16880;SDS011;8557;52.068;5.198;2022-10-16T09:43:47;5.25;;;2.08;;
16880;SDS011;8557;52.068;5.198;2022-10-16T09:46:21;8.45;;;2.22;;
16880;SDS011;8557;52.068;5.198;2022-10-16T09:48:55;7.05;;;1.85;;
16880;SDS011;8557;52.068;5.198;2022-10-16T09:51:24;10.40;;;2.03;;
16880;SDS011;8557;52.068;5.198;2022-10-16T09:53:57;7.65;;;2.10;;
16880;SDS011;8557;52.068;5.198;2022-10-16T09:56:26;6.85;;;2.67;;
16880;SDS011;8557;52.068;5.198;2022-10-16T09:58:55;8.65;;;2.05;;
16880;SDS011;8557;52.068;5.198;2022-10-16T10:01:24;6.95;;;2.10;;
16880;SDS011;8557;52.068;5.198;2022-10-16T10:03:57;5.75;;;1.77;;
16880;SDS011;8557;52.068;5.198;2022-10-16T10:06:27;7.25;;;2.30;;
16880;SDS011;8557;52.068;5.198;2022-10-16T10:08:56;10.40;;;2.45;;
16880;SDS011;8557;52.068;5.198;2022-10-16T10:11:42;6.50;;;1.90;;
16880;SDS011;8557;52.068;5.198;2022-10-16T10:14:15;6.13;;;2.25;;
16880;SDS011;8557;52.068;5.198;2022-10-16T10:16:44;5.55;;;1.67;;
16880;SDS011;8557;52.068;5.198;2022-10-16T10:19:14;7.80;;;2.28;;
16880;SDS011;8557;52.068;5.198;2022-10-16T10:21:42;7.85;;;2.35;;
16880;SDS011;8557;52.068;5.198;2022-10-16T10:24:10;11.95;;;2.38;;
16880;SDS011;8557;52.068;5.198;2022-10-16T10:26:37;7.93;;;2.40;;
16880;SDS011;8557;52.068;5.198;2022-10-16T10:29:08;9.57;;;2.30;;
16880;SDS011;8557;52.068;5.198;2022-10-16T10:31:42;10.68;;;2.60;;
16880;SDS011;8557;52.068;5.198;2022-10-16T10:34:32;10.60;;;2.50;;
16880;SDS011;8557;52.068;5.198;2022-10-16T10:37:08;8.80;;;2.20;;
16880;SDS011;8557;52.068;5.198;2022-10-16T10:39:47;9.93;;;2.40;;
16880;SDS011;8557;52.068;5.198;2022-10-16T10:42:22;9.38;;;2.45;;
16880;SDS011;8557;52.068;5.198;2022-10-16T10:44:59;7.65;;;1.92;;
16880;SDS011;8557;52.068;5.198;2022-10-16T10:47:41;7.28;;;1.80;;
16880;SDS011;8557;52.068;5.198;2022-10-16T10:50:20;9.02;;;2.10;;
16880;SDS011;8557;52.068;5.198;2022-10-16T10:52:58;4.28;;;1.65;;
16880;SDS011;8557;52.068;5.198;2022-10-16T10:55:33;9.68;;;1.88;;
16880;SDS011;8557;52.068;5.198;2022-10-16T11:01:04;6.60;;;1.98;;
16880;SDS011;8557;52.068;5.198;2022-10-16T11:03:42;12.25;;;2.10;;
16880;SDS011;8557;52.068;5.198;2022-10-16T11:06:25;9.32;;;2.30;;
16880;SDS011;8557;52.068;5.198;2022-10-16T11:08:55;12.10;;;2.05;;
16880;SDS011;8557;52.068;5.198;2022-10-16T11:11:28;8.57;;;2.13;;
16880;SDS011;8557;52.068;5.198;2022-10-16T11:14:00;10.18;;;2.35;;
16880;SDS011;8557;52.068;5.198;2022-10-16T11:16:33;9.60;;;2.30;;
16880;SDS011;8557;52.068;5.198;2022-10-16T11:19:04;7.43;;;1.85;;
16880;SDS011;8557;52.068;5.198;2022-10-16T11:21:48;10.75;;;2.10;;
16880;SDS011;8557;52.068;5.198;2022-10-16T11:24:20;6.40;;;1.75;;
16880;SDS011;8557;52.068;5.198;2022-10-16T11:26:51;8.32;;;1.77;;
16880;SDS011;8557;52.068;5.198;2022-10-16T11:29:22;9.73;;;2.20;;
16880;SDS011;8557;52.068;5.198;2022-10-16T11:31:55;7.07;;;1.92;;
16880;SDS011;8557;52.068;5.198;2022-10-16T11:34:28;6.55;;;2.00;;
16880;SDS011;8557;52.068;5.198;2022-10-16T11:37:01;8.73;;;2.17;;
16880;SDS011;8557;52.068;5.198;2022-10-16T11:39:31;6.57;;;1.60;;
16880;SDS011;8557;52.068;5.198;2022-10-16T11:42:00;8.63;;;2.00;;
16880;SDS011;8557;52.068;5.198;2022-10-16T11:44:36;6.47;;;1.73;;
16880;SDS011;8557;52.068;5.198;2022-10-16T11:47:15;6.57;;;1.92;;
16880;SDS011;8557;52.068;5.198;2022-10-16T11:49:52;6.35;;;1.77;;
16880;SDS011;8557;52.068;5.198;2022-10-16T11:52:28;7.47;;;1.90;;
16880;SDS011;8557;52.068;5.198;2022-10-16T11:55:02;9.23;;;1.60;;
16880;SDS011;8557;52.068;5.198;2022-10-16T11:57:32;7.78;;;1.85;;
16880;SDS011;8557;52.068;5.198;2022-10-16T12:00:04;6.88;;;1.60;;
16880;SDS011;8557;52.068;5.198;2022-10-16T12:02:48;7.35;;;1.75;;
16880;SDS011;8557;52.068;5.198;2022-10-16T12:05:23;5.95;;;1.50;;
16880;SDS011;8557;52.068;5.198;2022-10-16T12:07:59;6.15;;;1.77;;
16880;SDS011;8557;52.068;5.198;2022-10-16T12:10:32;7.05;;;1.77;;
16880;SDS011;8557;52.068;5.198;2022-10-16T12:13:02;7.10;;;1.77;;
16880;SDS011;8557;52.068;5.198;2022-10-16T12:15:30;7.80;;;1.90;;
16880;SDS011;8557;52.068;5.198;2022-10-16T12:17:58;10.90;;;1.98;;
16880;SDS011;8557;52.068;5.198;2022-10-16T12:20:26;4.70;;;1.45;;
16880;SDS011;8557;52.068;5.198;2022-10-16T12:22:59;6.22;;;1.70;;
16880;SDS011;8557;52.068;5.198;2022-10-16T12:25:28;7.18;;;1.80;;
16880;SDS011;8557;52.068;5.198;2022-10-16T12:27:58;6.40;;;1.52;;
16880;SDS011;8557;52.068;5.198;2022-10-16T12:30:27;8.00;;;1.60;;
16880;SDS011;8557;52.068;5.198;2022-10-16T12:32:56;6.90;;;1.77;;
16880;SDS011;8557;52.068;5.198;2022-10-16T12:35:25;4.47;;;1.30;;
16880;SDS011;8557;52.068;5.198;2022-10-16T12:37:54;7.28;;;1.58;;
16880;SDS011;8557;52.068;5.198;2022-10-16T12:40:34;4.45;;;1.50;;
16880;SDS011;8557;52.068;5.198;2022-10-16T12:43:13;7.32;;;1.60;;
16880;SDS011;8557;52.068;5.198;2022-10-16T12:46:02;6.10;;;1.48;;
16880;SDS011;8557;52.068;5.198;2022-10-16T12:48:30;7.38;;;1.60;;
16880;SDS011;8557;52.068;5.198;2022-10-16T12:50:57;8.70;;;1.55;;
16880;SDS011;8557;52.068;5.198;2022-10-16T12:53:37;6.55;;;1.75;;
16880;SDS011;8557;52.068;5.198;2022-10-16T12:56:08;8.00;;;1.95;;
16880;SDS011;8557;52.068;5.198;2022-10-16T12:58:48;7.47;;;1.77;;
16880;SDS011;8557;52.068;5.198;2022-10-16T13:01:34;8.80;;;2.00;;
16880;SDS011;8557;52.068;5.198;2022-10-16T13:07:15;7.53;;;1.80;;
16880;SDS011;8557;52.068;5.198;2022-10-16T13:10:00;7.25;;;1.80;;
16880;SDS011;8557;52.068;5.198;2022-10-16T13:12:41;5.95;;;1.48;;
16880;SDS011;8557;52.068;5.198;2022-10-16T13:15:33;7.35;;;1.50;;
16880;SDS011;8557;52.068;5.198;2022-10-16T13:18:11;8.35;;;1.58;;
16880;SDS011;8557;52.068;5.198;2022-10-16T13:20:47;6.97;;;1.63;;
16880;SDS011;8557;52.068;5.198;2022-10-16T13:23:23;6.57;;;1.60;;
16880;SDS011;8557;52.068;5.198;2022-10-16T13:26:01;6.68;;;1.80;;
16880;SDS011;8557;52.068;5.198;2022-10-16T13:28:39;6.03;;;1.80;;
16880;SDS011;8557;52.068;5.198;2022-10-16T13:31:09;7.28;;;1.60;;
16880;SDS011;8557;52.068;5.198;2022-10-16T13:33:41;7.20;;;1.75;;
16880;SDS011;8557;52.068;5.198;2022-10-16T13:36:18;6.63;;;1.65;;
16880;SDS011;8557;52.068;5.198;2022-10-16T13:38:46;9.98;;;1.92;;
16880;SDS011;8557;52.068;5.198;2022-10-16T13:41:15;6.63;;;1.67;;
16880;SDS011;8557;52.068;5.198;2022-10-16T13:43:45;4.82;;;1.85;;
16880;SDS011;8557;52.068;5.198;2022-10-16T13:46:15;5.88;;;1.63;;
16880;SDS011;8557;52.068;5.198;2022-10-16T13:48:43;6.97;;;2.08;;
16880;SDS011;8557;52.068;5.198;2022-10-16T13:51:12;9.20;;;2.10;;
16880;SDS011;8557;52.068;5.198;2022-10-16T13:53:40;6.95;;;1.70;;
16880;SDS011;8557;52.068;5.198;2022-10-16T13:56:10;10.60;;;1.90;;
16880;SDS011;8557;52.068;5.198;2022-10-16T13:58:39;6.70;;;1.95;;
16880;SDS011;8557;52.068;5.198;2022-10-16T14:01:14;7.00;;;1.80;;
16880;SDS011;8557;52.068;5.198;2022-10-16T14:03:43;8.23;;;2.38;;
16880;SDS011;8557;52.068;5.198;2022-10-16T14:06:11;7.53;;;1.48;;
16880;SDS011;8557;52.068;5.198;2022-10-16T14:08:42;9.73;;;1.98;;
16880;SDS011;8557;52.068;5.198;2022-10-16T14:11:11;10.10;;;1.85;;
16880;SDS011;8557;52.068;5.198;2022-10-16T14:13:39;7.47;;;1.75;;
16880;SDS011;8557;52.068;5.198;2022-10-16T14:16:11;8.15;;;2.00;;
16880;SDS011;8557;52.068;5.198;2022-10-16T14:18:44;4.75;;;1.58;;
16880;SDS011;8557;52.068;5.198;2022-10-16T14:21:14;10.15;;;1.95;;
16880;SDS011;8557;52.068;5.198;2022-10-16T14:23:42;6.35;;;1.80;;
16880;SDS011;8557;52.068;5.198;2022-10-16T14:26:17;7.78;;;2.00;;
16880;SDS011;8557;52.068;5.198;2022-10-16T14:28:48;7.28;;;1.80;;
16880;SDS011;8557;52.068;5.198;2022-10-16T14:31:29;7.70;;;2.38;;
16880;SDS011;8557;52.068;5.198;2022-10-16T14:33:57;9.50;;;2.05;;
16880;SDS011;8557;52.068;5.198;2022-10-16T14:36:25;10.00;;;2.05;;
16880;SDS011;8557;52.068;5.198;2022-10-16T14:38:56;9.30;;;1.70;;
16880;SDS011;8557;52.068;5.198;2022-10-16T14:41:26;5.95;;;2.10;;
16880;SDS011;8557;52.068;5.198;2022-10-16T14:43:55;8.07;;;1.88;;
16880;SDS011;8557;52.068;5.198;2022-10-16T14:46:28;6.25;;;2.10;;
16880;SDS011;8557;52.068;5.198;2022-10-16T14:49:00;10.93;;;2.70;;
16880;SDS011;8557;52.068;5.198;2022-10-16T14:51:30;10.95;;;2.47;;
16880;SDS011;8557;52.068;5.198;2022-10-16T14:53:56;9.45;;;2.00;;
16880;SDS011;8557;52.068;5.198;2022-10-16T14:56:24;13.43;;;2.28;;
16880;SDS011;8557;52.068;5.198;2022-10-16T14:58:54;15.38;;;6.25;;
16880;SDS011;8557;52.068;5.198;2022-10-16T15:01:21;14.82;;;7.35;;
16880;SDS011;8557;52.068;5.198;2022-10-16T15:03:48;10.52;;;3.60;;
16880;SDS011;8557;52.068;5.198;2022-10-16T15:06:17;8.15;;;2.40;;
16880;SDS011;8557;52.068;5.198;2022-10-16T15:08:44;9.77;;;2.50;;
16880;SDS011;8557;52.068;5.198;2022-10-16T15:11:10;10.30;;;2.33;;
16880;SDS011;8557;52.068;5.198;2022-10-16T15:13:40;10.20;;;3.10;;
16880;SDS011;8557;52.068;5.198;2022-10-16T15:16:09;7.38;;;2.10;;
16880;SDS011;8557;52.068;5.198;2022-10-16T15:18:37;7.07;;;2.15;;
16880;SDS011;8557;52.068;5.198;2022-10-16T15:21:04;11.45;;;2.20;;
16880;SDS011;8557;52.068;5.198;2022-10-16T15:23:31;8.73;;;2.97;;